Time;durP1;ratioP1;P1;durP2;ratioP2;P2;SDS_P1;SDS_P2;PMS_P1;PMS_P2;Temp;Humidity;BMP_temperature;BMP_pressure;BME280_temperature;BME280_humidity;BME280_pressure;Samples;Min_cycle;Max_cycle;Signal;HPM_P1;HPM_P2
2022/11/14 00:55:02;;;;;;;;;;;;;;;;;;6278609;22;19923;-91
2022/11/14 00:57:30;;;;;;;;;;;;;;;;;;6230790;22;20212;-92
2022/11/14 00:59:56;;;;;;;;;;;;;;;;;;6231857;22;19954;-91
2022/11/14 01:02:25;;;;;;;;;;;;;;;;;;6256939;22;19938;-92
2022/11/14 01:04:54;;;;;;;;;;;;;;;;;;6232184;22;19962;-92
2022/11/14 01:07:20;;;;;;;;;;;;;;;;;;6234842;22;20228;-92
2022/11/14 01:09:46;;;;;;;;;;;;;;;;;;6232510;22;19926;-91
2022/11/14 01:12:12;;;;;;;;;;;;;;;;;;6230599;22;19945;-91
2022/11/14 01:14:38;;;;;;;;;;;;;;;;;;6259216;22;19918;-90
2022/11/14 01:17:04;;;;;;;;;;;;;;;;;;6238654;22;19919;-91
2022/11/14 01:19:32;;;;;;;;;;;;;;;;;;6235518;22;19949;-92
2022/11/14 01:21:58;;;;;;;;;;;;;;;;;;6259309;22;19923;-91
2022/11/14 01:24:27;;;;;;;;;;;;;;;;;;6235600;22;20332;-90
2022/11/14 01:26:53;;;;;;;;;;;;;;;;;;6235188;22;19930;-91
2022/11/14 01:29:19;;;;;;;;;;;;;;;;;;6228738;22;19923;-92
2022/11/14 01:31:51;;;;;;;;;;;;;;;;;;6234871;22;20088;-91
2022/11/14 01:34:28;;;;;;;;;;;;;;;;;;6257167;22;19919;-91
2022/11/14 01:36:54;;;;;;;;;;;;;;;;;;6237817;22;20017;-92
2022/11/14 01:39:22;;;;;;;;;;;;;;;;;;6234890;22;20365;-91
2022/11/14 01:41:48;;;;;;;;;;;;;;;;;;6236024;22;19923;-91
2022/11/14 01:44:17;;;;;;;;;;;;;;;;;;6263365;22;19918;-91
2022/11/14 01:46:46;;;;;;;;;;;;;;;;;;6264213;22;19919;-90
2022/11/14 01:49:12;;;;;;;;;;;;;;;;;;6237342;22;19928;-91
2022/11/14 01:51:38;;;;;;;;;;;;;;;;;;6260231;22;19946;-90
2022/11/14 01:54:07;;;;;;;;;;;;;;;;;;6237881;22;19915;-90
2022/11/14 01:56:33;;;;;;;;;;;;;;;;;;6229528;22;19982;-90
2022/11/14 01:59:01;;;;;;;;;;;;;;;;;;6233821;22;19915;-91
2022/11/14 02:01:27;;;;;;;;;;;;;;;;;;6227371;22;19919;-91
2022/11/14 02:03:56;;;;;;;;;;;;;;;;;;6231899;22;19923;-91
2022/11/14 02:06:25;;;;;;;;;;;;;;;;;;6231647;22;19953;-91
2022/11/14 02:08:51;;;;;;;;;;;;;;;;;;6232079;22;19927;-91
2022/11/14 02:11:20;;;;;;;;;;;;;;;;;;6233040;22;19919;-91
2022/11/14 02:13:49;;;;;;;;;;;;;;;;;;6263790;22;20332;-91
2022/11/14 02:16:20;;;;;;;;;;;;;;;;;;6239653;22;19919;-91
2022/11/14 02:18:49;;;;;;;;;;;;;;;;;;6239517;22;19937;-91
2022/11/14 02:21:18;;;;;;;;;;;;;;;;;;6263146;22;19927;-91
2022/11/14 02:23:44;;;;;;;;;;;;;;;;;;6241337;22;20195;-91
2022/11/14 02:26:10;;;;;;;;;;;;;;;;;;6264416;22;19919;-91
2022/11/14 02:28:36;;;;;;;;;;;;;;;;;;6232701;22;19923;-91
2022/11/14 02:31:02;;;;;;;;;;;;;;;;;;6237864;22;20554;-91
2022/11/14 02:33:28;;;;;;;;;;;;;;;;;;6234593;22;19919;-91
2022/11/14 02:35:57;;;;;;;;;;;;;;;;;;6236615;22;19923;-91
2022/11/14 02:38:23;;;;;;;;;;;;;;;;;;6234609;22;20017;-91
2022/11/14 02:40:53;;;;;;;;;;;;;;;;;;6238837;22;19943;-90
2022/11/14 02:43:19;;;;;;;;;;;;;;;;;;6235657;22;19972;-91
2022/11/14 02:45:45;;;;;;;;;;;;;;;;;;6237072;22;19919;-91
2022/11/14 02:48:11;;;;;;;;;;;;;;;;;;6238321;22;19919;-91
2022/11/14 02:50:37;;;;;;;;;;;;;;;;;;6233093;22;19994;-90
2022/11/14 02:53:03;;;;;;;;;;;;;;;;;;6237855;22;19914;-91
2022/11/14 02:55:29;;;;;;;;;;;;;;;;;;6234474;22;19923;-91
2022/11/14 02:57:55;;;;;;;;;;;;;;;;;;6260219;22;19923;-90
2022/11/14 03:00:24;;;;;;;;;;;;;;;;;;6234695;22;19926;-91
2022/11/14 03:02:50;;;;;;;;;;;;;;;;;;6239204;22;19915;-91
2022/11/14 03:05:18;;;;;;;;;;;;;;;;;;6235532;22;19988;-92
2022/11/14 03:07:44;;;;;;;;;;;;;;;;;;6237751;22;19919;-91
2022/11/14 03:10:10;;;;;;;;;;;;;;;;;;6239712;22;19950;-91
2022/11/14 03:12:36;;;;;;;;;;;;;;;;;;6260512;22;19946;-91
2022/11/14 03:15:02;;;;;;;;;;;;;;;;;;6237623;22;20292;-91
2022/11/14 03:17:28;;;;;;;;;;;;;;;;;;6261023;22;19922;-91
2022/11/14 03:19:57;;;;;;;;;;;;;;;;;;6238007;22;19953;-91
2022/11/14 03:22:26;;;;;;;;;;;;;;;;;;6237507;22;20239;-91
2022/11/14 03:24:55;;;;;;;;;;;;;;;;;;6240573;22;20000;-91
2022/11/14 03:27:21;;;;;;;;;;;;;;;;;;6263134;22;20116;-91
2022/11/14 03:29:47;;;;;;;;;;;;;;;;;;6241677;22;20296;-90
2022/11/14 03:32:16;;;;;;;;;;;;;;;;;;6235802;22;19923;-91
2022/11/14 03:34:42;;;;;;;;;;;;;;;;;;6265971;22;19959;-90
2022/11/14 03:37:08;;;;;;;;;;;;;;;;;;6266179;22;19950;-91
2022/11/14 03:39:36;;;;;;;;;;;;;;;;;;6239879;22;19919;-91
2022/11/14 03:42:06;;;;;;;;;;;;;;;;;;6266419;22;19919;-91
2022/11/14 03:44:32;;;;;;;;;;;;;;;;;;6260036;22;19922;-91
2022/11/14 03:46:58;;;;;;;;;;;;;;;;;;6238178;22;19957;-92
2022/11/14 03:49:26;;;;;;;;;;;;;;;;;;6237026;22;19923;-91
2022/11/14 03:51:52;;;;;;;;;;;;;;;;;;6262652;22;19989;-91
2022/11/14 03:54:21;;;;;;;;;;;;;;;;;;6236419;22;20020;-92
2022/11/14 03:56:54;;;;;;;;;;;;;;;;;;6265740;22;19950;-91
2022/11/14 03:59:20;;;;;;;;;;;;;;;;;;6235238;22;19919;-91
2022/11/14 04:01:47;;;;;;;;;;;;;;;;;;6235472;22;20226;-91
2022/11/14 04:04:13;;;;;;;;;;;;;;;;;;6224246;22;19918;-91
2022/11/14 04:06:39;;;;;;;;;;;;;;;;;;6260833;22;20328;-91
2022/11/14 04:09:08;;;;;;;;;;;;;;;;;;6237778;22;19930;-91
2022/11/14 04:11:34;;;;;;;;;;;;;;;;;;6259252;22;20358;-91
2022/11/14 04:14:00;;;;;;;;;;;;;;;;;;6240522;22;19919;-90
2022/11/14 04:16:26;;;;;;;;;;;;;;;;;;6235437;22;19938;-92
2022/11/14 04:18:52;;;;;;;;;;;;;;;;;;6261469;22;20315;-91
2022/11/14 04:21:21;;;;;;;;;;;;;;;;;;6236614;22;20312;-92
2022/11/14 04:23:49;;;;;;;;;;;;;;;;;;6238017;22;19915;-91
2022/11/14 04:26:15;;;;;;;;;;;;;;;;;;6261669;22;20002;-92
2022/11/14 04:28:47;;;;;;;;;;;;;;;;;;6235391;22;19954;-92
2022/11/14 04:31:22;;;;;;;;;;;;;;;;;;6259976;22;19946;-91
2022/11/14 04:33:51;;;;;;;;;;;;;;;;;;6238216;22;19922;-92
2022/11/14 04:36:20;;;;;;;;;;;;;;;;;;6233989;22;19925;-91
2022/11/14 04:38:49;;;;;;;;;;;;;;;;;;6238244;22;19922;-92
2022/11/14 04:41:18;;;;;;;;;;;;;;;;;;6239854;22;19922;-92
2022/11/14 04:43:44;;;;;;;;;;;;;;;;;;6240110;22;19930;-91
2022/11/14 04:46:10;;;;;;;;;;;;;;;;;;6236645;22;19942;-92
2022/11/14 04:48:36;;;;;;;;;;;;;;;;;;6232851;22;20497;-91
2022/11/14 04:51:04;;;;;;;;;;;;;;;;;;6236387;22;19930;-91
2022/11/14 04:53:30;;;;;;;;;;;;;;;;;;6232790;22;19919;-91
2022/11/14 04:55:56;;;;;;;;;;;;;;;;;;6264267;22;19922;-91
2022/11/14 04:58:22;;;;;;;;;;;;;;;;;;6259822;22;19919;-92
2022/11/14 05:00:48;;;;;;;;;;;;;;;;;;6262364;22;19919;-92
2022/11/14 05:03:17;;;;;;;;;;;;;;;;;;6235020;22;20084;-92
2022/11/14 05:05:43;;;;;;;;;;;;;;;;;;6238362;22;19921;-92
2022/11/14 05:08:09;;;;;;;;;;;;;;;;;;6237924;22;20263;-91
2022/11/14 05:10:35;;;;;;;;;;;;;;;;;;6235382;22;19926;-92
2022/11/14 05:13:01;;;;;;;;;;;;;;;;;;6265918;22;19919;-91
2022/11/14 05:15:27;;;;;;;;;;;;;;;;;;6262714;22;19919;-92
2022/11/14 05:17:53;;;;;;;;;;;;;;;;;;6240203;22;19922;-92
2022/11/14 05:20:19;;;;;;;;;;;;;;;;;;6236885;22;19921;-92
2022/11/14 05:22:45;;;;;;;;;;;;;;;;;;6238612;22;20361;-92
2022/11/14 05:25:11;;;;;;;;;;;;;;;;;;6264382;22;19952;-91
2022/11/14 05:27:37;;;;;;;;;;;;;;;;;;6261939;22;20405;-92
2022/11/14 05:30:03;;;;;;;;;;;;;;;;;;6263434;22;19930;-92
2022/11/14 05:32:29;;;;;;;;;;;;;;;;;;6234401;22;20017;-92
2022/11/14 05:34:55;;;;;;;;;;;;;;;;;;6264205;22;19963;-92
2022/11/14 05:37:21;;;;;;;;;;;;;;;;;;6234989;22;19923;-91
2022/11/14 05:39:47;;;;;;;;;;;;;;;;;;6237491;22;20324;-91
2022/11/14 05:42:13;;;;;;;;;;;;;;;;;;6242732;22;19925;-91
2022/11/14 05:44:39;;;;;;;;;;;;;;;;;;6261704;22;19918;-91
2022/11/14 05:47:05;;;;;;;;;;;;;;;;;;6263737;22;19918;-92
2022/11/14 05:49:31;;;;;;;;;;;;;;;;;;6237291;22;20179;-91
2022/11/14 05:51:57;;;;;;;;;;;;;;;;;;6237306;22;19954;-91
2022/11/14 05:54:23;;;;;;;;;;;;;;;;;;6265571;22;19964;-91
2022/11/14 05:56:49;;;;;;;;;;;;;;;;;;6266172;22;20305;-91
2022/11/14 05:59:18;;;;;;;;;;;;;;;;;;6241454;22;19950;-91
2022/11/14 06:01:44;;;;;;;;;;;;;;;;;;6240086;22;19968;-92
2022/11/14 06:04:10;;;;;;;;;;;;;;;;;;6293576;22;19918;-91
2022/11/14 06:06:38;;;;;;;;;;;;;;;;;;6263978;22;20179;-91
2022/11/14 06:09:04;;;;;;;;;;;;;;;;;;6241732;22;19930;-92
2022/11/14 06:11:30;;;;;;;;;;;;;;;;;;6238504;22;19919;-91
2022/11/14 06:13:56;;;;;;;;;;;;;;;;;;6239968;22;19923;-91
2022/11/14 06:16:22;;;;;;;;;;;;;;;;;;6240046;22;19919;-92
2022/11/14 06:18:48;;;;;;;;;;;;;;;;;;6242487;22;20224;-91
2022/11/14 06:21:14;;;;;;;;;;;;;;;;;;6263685;22;19990;-92
2022/11/14 06:23:40;;;;;;;;;;;;;;;;;;6234902;22;20156;-92
2022/11/14 06:26:08;;;;;;;;;;;;;;;;;;6263805;22;19915;-92
2022/11/14 06:28:34;;;;;;;;;;;;;;;;;;6262967;22;19987;-92
2022/11/14 06:31:03;;;;;;;;;;;;;;;;;;6266271;22;20252;-92
2022/11/14 06:33:29;;;;;;;;;;;;;;;;;;6236567;22;20298;-92
2022/11/14 06:35:55;;;;;;;;;;;;;;;;;;6265259;22;20737;-92
2022/11/14 06:38:21;;;;;;;;;;;;;;;;;;6239310;22;19919;-92
2022/11/14 06:40:47;;;;;;;;;;;;;;;;;;6263026;22;19926;-92
2022/11/14 06:43:19;;;;;;;;;;;;;;;;;;6236905;22;19919;-92
2022/11/14 06:45:47;;;;;;;;;;;;;;;;;;6243161;22;19919;-92
2022/11/14 06:48:13;;;;;;;;;;;;;;;;;;6240544;22;19919;-92
2022/11/14 06:50:42;;;;;;;;;;;;;;;;;;6233560;22;19919;-91
2022/11/14 06:53:28;;;;;;;;;;;;;;;;;;;;;
2022/11/14 06:55:58;;;;;;;;;;;;;;;;;;6264805;22;19919;-91
2022/11/14 06:58:30;;;;;;;;;;;;;;;;;;6238550;22;20255;-91
2022/11/14 07:01:00;;;;;;;;;;;;;;;;;;6237428;22;19918;-91
2022/11/14 07:11:28;;;;;;;;;;;;;;;;;;6292507;22;19930;-90
2022/11/14 07:14:06;;;;;;;;;;;;;;;;;;;;;
2022/11/14 07:56:12;;;;;;;;;;;;;;;;;;6285949;22;19923;-91
2022/11/14 07:58:38;;;;;;;;;;;;;;;;;;6236154;22;20017;-89
2022/11/14 08:01:04;;;;;;;;;;;;;;;;;;6237803;22;20011;-91
2022/11/14 08:03:29;;;;;;;;;;;;;;;;;;6262669;22;19926;-91
2022/11/14 08:05:55;;;;;;;;;;;;;;;;;;6266634;22;19919;-91
2022/11/14 08:08:21;;;;;;;;;;;;;;;;;;6265426;22;19918;-90
2022/11/14 08:10:47;;;;;;;;;;;;;;;;;;6243157;22;20336;-90
2022/11/14 08:13:13;;;;;;;;;;;;;;;;;;6266609;22;19972;-90
2022/11/14 08:15:39;;;;;;;;;;;;;;;;;;6240564;22;19961;-90
2022/11/14 08:18:05;;;;;;;;;;;;;;;;;;6243499;22;19948;-91
2022/11/14 08:20:31;;;;;;;;;;;;;;;;;;6238188;22;19919;-90
2022/11/14 08:22:57;;;;;;;;;;;;;;;;;;6239946;22;19927;-90
2022/11/14 08:25:23;;;;;;;;;;;;;;;;;;6238207;22;19919;-90
2022/11/14 08:27:49;;;;;;;;;;;;;;;;;;6241068;22;19958;-91
2022/11/14 08:30:15;;;;;;;;;;;;;;;;;;6242683;22;19918;-90
2022/11/14 08:32:41;;;;;;;;;;;;;;;;;;6242485;22;19919;-90
2022/11/14 08:35:07;;;;;;;;;;;;;;;;;;6242297;22;19993;-90
2022/11/14 08:37:33;;;;;;;;;;;;;;;;;;6265506;22;20594;-91
2022/11/14 08:39:59;;;;;;;;;;;;;;;;;;6241953;22;19918;-90
2022/11/14 08:42:25;;;;;;;;;;;;;;;;;;6265306;22;19955;-90
2022/11/14 08:44:51;;;;;;;;;;;;;;;;;;6241653;22;19915;-90
2022/11/14 08:47:17;;;;;;;;;;;;;;;;;;6239542;22;19986;-91
2022/11/14 08:49:43;;;;;;;;;;;;;;;;;;6268769;22;19919;-90
2022/11/14 08:52:09;;;;;;;;;;;;;;;;;;6242515;22;19926;-90
2022/11/14 08:54:35;;;;;;;;;;;;;;;;;;6239639;22;20302;-90
2022/11/14 08:57:01;;;;;;;;;;;;;;;;;;6294953;22;19997;-91
2022/11/14 08:59:27;;;;;;;;;;;;;;;;;;6240755;22;19998;-90
2022/11/14 09:01:55;;;;;;;;;;;;;;;;;;6267787;22;19973;-89
2022/11/14 09:04:21;;;;;;;;;;;;;;;;;;6236294;22;19926;-90
2022/11/14 09:06:47;;;;;;;;;;;;;;;;;;6242669;22;19923;-90
2022/11/14 09:09:13;;;;;;;;;;;;;;;;;;6242725;22;19930;-90
2022/11/14 09:11:39;;;;;;;;;;;;;;;;;;6239281;22;20489;-90
2022/11/14 09:14:05;;;;;;;;;;;;;;;;;;6269136;22;19972;-90
2022/11/14 09:16:32;;;;;;;;;;;;;;;;;;6240257;22;19926;-90
2022/11/14 09:18:58;;;;;;;;;;;;;;;;;;6240384;22;19988;-90
2022/11/14 09:21:24;;;;;;;;;;;;;;;;;;6240460;22;19914;-90
2022/11/14 09:23:50;;;;;;;;;;;;;;;;;;6244108;22;19922;-90
2022/11/14 09:26:17;;;;;;;;;;;;;;;;;;6269564;22;20004;-90
2022/11/14 09:28:43;;;;;;;;;;;;;;;;;;6267992;22;19925;-90
2022/11/14 09:31:09;;;;;;;;;;;;;;;;;;6270448;22;19919;-90
2022/11/14 09:33:35;;;;;;;;;;;;;;;;;;6241928;22;19926;-90
2022/11/14 09:36:01;;;;;;;;;;;;;;;;;;6244126;22;20395;-90
2022/11/14 09:38:27;;;;;;;;;;;;;;;;;;6242223;22;19918;-90
2022/11/14 09:40:53;;;;;;;;;;;;;;;;;;6244969;22;19915;-91
2022/11/14 09:43:19;;;;;;;;;;;;;;;;;;6267658;22;20383;-90
2022/11/14 09:45:45;;;;;;;;;;;;;;;;;;6267032;22;19974;-90
2022/11/14 09:48:11;;;;;;;;;;;;;;;;;;6242979;22;20002;-91
2022/11/14 09:50:37;;;;;;;;;;;;;;;;;;6239323;22;19927;-91
2022/11/14 09:53:03;;;;;;;;;;;;;;;;;;6243632;22;19989;-91
2022/11/14 09:55:29;;;;;;;;;;;;;;;;;;6241031;22;19942;-90
2022/11/14 09:57:55;;;;;;;;;;;;;;;;;;6268648;22;20332;-90
2022/11/14 10:00:21;;;;;;;;;;;;;;;;;;6235946;22;19998;-91
2022/11/14 10:02:49;;;;;;;;;;;;;;;;;;6242237;22;19957;-90
2022/11/14 10:05:18;;;;;;;;;;;;;;;;;;6242881;22;19965;-91
2022/11/14 10:07:44;;;;;;;;;;;;;;;;;;6243612;22;19919;-90
2022/11/14 10:10:11;;;;;;;;;;;;;;;;;;6243264;22;19923;-91
2022/11/14 10:12:46;;;;;;;;;;;;;;;;;;6292160;22;20610;-89
2022/11/14 10:15:12;;;;;;;;;;;;;;;;;;6266266;22;19919;-91
2022/11/14 10:17:38;;;;;;;;;;;;;;;;;;6241368;22;19919;-91
2022/11/14 10:20:04;;;;;;;;;;;;;;;;;;6244361;22;20236;-91
2022/11/14 10:22:30;;;;;;;;;;;;;;;;;;6238816;22;19946;-91
2022/11/14 10:24:56;;;;;;;;;;;;;;;;;;6243027;22;19930;-90
2022/11/14 10:27:22;;;;;;;;;;;;;;;;;;6239427;22;20010;-91
2022/11/14 10:29:48;;;;;;;;;;;;;;;;;;6240606;22;19990;-91
2022/11/14 10:32:14;;;;;;;;;;;;;;;;;;6268912;22;19919;-90
2022/11/14 10:34:40;;;;;;;;;;;;;;;;;;6241597;22;19919;-89
2022/11/14 10:37:09;;;;;;;;;;;;;;;;;;6268480;22;19927;-89
2022/11/14 10:39:35;;;;;;;;;;;;;;;;;;6240796;22;19918;-89
2022/11/14 10:42:01;;;;;;;;;;;;;;;;;;6243075;22;19919;-89
2022/11/14 10:44:27;;;;;;;;;;;;;;;;;;6264140;22;20084;-89
2022/11/14 10:46:53;;;;;;;;;;;;;;;;;;6244219;22;19914;-88
2022/11/14 10:49:19;;;;;;;;;;;;;;;;;;6266830;22;19930;-89
2022/11/14 10:51:45;;;;;;;;;;;;;;;;;;6240876;22;19915;-89
2022/11/14 10:54:11;;;;;;;;;;;;;;;;;;6242036;22;20247;-89
2022/11/14 10:56:37;;;;;;;;;;;;;;;;;;6265351;22;19994;-89
2022/11/14 10:59:03;;;;;;;;;;;;;;;;;;6244325;22;20298;-89
2022/11/14 11:01:29;;;;;;;;;;;;;;;;;;6240373;22;19957;-89
2022/11/14 11:03:55;;;;;;;;;;;;;;;;;;6243511;22;19969;-89
2022/11/14 11:06:21;;;;;;;;;;;;;;;;;;6242488;22;19919;-89
2022/11/14 11:11:32;;;;;;;;;;;;;;;;;;6268714;22;19975;-89
2022/11/14 11:13:57;;;;;;;;;;;;;;;;;;6243934;22;19918;-89
2022/11/14 11:16:23;;;;;;;;;;;;;;;;;;6268555;22;19926;-89
2022/11/14 11:18:49;;;;;;;;;;;;;;;;;;6245177;22;19915;-89
2022/11/14 11:21:15;;;;;;;;;;;;;;;;;;6244651;22;19919;-89
2022/11/14 11:23:41;;;;;;;;;;;;;;;;;;6242344;22;19918;-89
2022/11/14 11:26:07;;;;;;;;;;;;;;;;;;6268243;22;19922;-89
2022/11/14 11:28:34;;;;;;;;;;;;;;;;;;6241763;22;19919;-89
2022/11/14 11:31:02;;;;;;;;;;;;;;;;;;6269704;22;20001;-89
2022/11/14 11:33:28;;;;;;;;;;;;;;;;;;6263981;22;19954;-89
2022/11/14 11:35:59;;;;;;;;;;;;;;;;;;6244602;22;19914;-88
2022/11/14 11:38:26;;;;;;;;;;;;;;;;;;6240020;22;19929;-88
2022/11/14 11:40:58;;;;;;;;;;;;;;;;;;6243730;22;19992;-89
2022/11/14 11:43:24;;;;;;;;;;;;;;;;;;6265207;22;19954;-89
2022/11/14 11:45:50;;;;;;;;;;;;;;;;;;6243675;22;19915;-89
2022/11/14 11:48:16;;;;;;;;;;;;;;;;;;6243198;22;19988;-89
2022/11/14 11:50:45;;;;;;;;;;;;;;;;;;6242713;22;19923;-89
2022/11/14 11:53:11;;;;;;;;;;;;;;;;;;6241369;22;19997;-89
2022/11/14 11:55:37;;;;;;;;;;;;;;;;;;6240752;22;21038;-89
2022/11/14 11:58:03;;;;;;;;;;;;;;;;;;6268555;22;19941;-89
2022/11/14 12:00:32;;;;;;;;;;;;;;;;;;6241243;22;19968;-89
2022/11/14 12:03:00;;;;;;;;;;;;;;;;;;6242014;22;19950;-89
2022/11/14 12:05:26;;;;;;;;;;;;;;;;;;6239801;22;20247;-89
2022/11/14 12:07:55;;;;;;;;;;;;;;;;;;6244543;22;19998;-89
2022/11/14 12:10:24;;;;;;;;;;;;;;;;;;6241458;22;19946;-89
2022/11/14 12:12:50;;;;;;;;;;;;;;;;;;6243245;22;20461;-89
2022/11/14 12:15:16;;;;;;;;;;;;;;;;;;6244687;22;19919;-89
2022/11/14 12:17:42;;;;;;;;;;;;;;;;;;6240351;22;19925;-89
2022/11/14 12:20:08;;;;;;;;;;;;;;;;;;6267453;22;19985;-89
2022/11/14 12:22:34;;;;;;;;;;;;;;;;;;6242637;22;19915;-89
2022/11/14 12:25:00;;;;;;;;;;;;;;;;;;6271091;22;19968;-89
2022/11/14 12:27:34;;;;;;;;;;;;;;;;;;6243127;22;19976;-89
2022/11/14 12:30:00;;;;;;;;;;;;;;;;;;6245604;22;20359;-89
2022/11/14 12:32:26;;;;;;;;;;;;;;;;;;6239134;22;20331;-89
2022/11/14 12:34:52;;;;;;;;;;;;;;;;;;6268497;22;20328;-88
2022/11/14 12:37:20;;;;;;;;;;;;;;;;;;6241226;22;19965;-90
2022/11/14 12:39:49;;;;;;;;;;;;;;;;;;6243290;22;19919;-89
2022/11/14 12:42:24;;;;;;;;;;;;;;;;;;6268515;22;20354;-89
2022/11/14 12:44:51;;;;;;;;;;;;;;;;;;6268364;22;19915;-89
2022/11/14 12:47:20;;;;;;;;;;;;;;;;;;6242857;22;19927;-89
2022/11/14 12:49:46;;;;;;;;;;;;;;;;;;6242274;22;20351;-89
2022/11/14 12:52:15;;;;;;;;;;;;;;;;;;6240941;22;19989;-89
2022/11/14 12:54:41;;;;;;;;;;;;;;;;;;6264437;22;19919;-89
2022/11/14 12:57:08;;;;;;;;;;;;;;;;;;6237198;22;20267;-89
2022/11/14 12:59:34;;;;;;;;;;;;;;;;;;6235250;22;20037;-89
2022/11/14 13:02:00;;;;;;;;;;;;;;;;;;6234001;22;19926;-89
2022/11/14 13:04:30;;;;;;;;;;;;;;;;;;6256766;22;20362;-89
2022/11/14 13:06:58;;;;;;;;;;;;;;;;;;6238688;22;19926;-89
2022/11/14 13:09:24;;;;;;;;;;;;;;;;;;6260549;22;19919;-89
2022/11/14 13:22:50;;;;;;;;;;;;;;;;;;6263555;22;19922;-89
2022/11/14 13:25:16;;;;;;;;;;;;;;;;;;6237419;22;19916;-88
2022/11/14 13:27:42;;;;;;;;;;;;;;;;;;6236172;22;19996;-89
2022/11/14 13:30:14;;;;;;;;;;;;;;;;;;6237864;22;19930;-89
2022/11/14 13:32:40;;;;;;;;;;;;;;;;;;6233568;22;19919;-89
2022/11/14 13:35:06;;;;;;;;;;;;;;;;;;6228795;22;19958;-89
2022/11/14 13:37:32;;;;;;;;;;;;;;;;;;6230907;22;19981;-89
2022/11/14 13:40:00;;;;;;;;;;;;;;;;;;6233368;22;19919;-89
2022/11/14 13:42:26;;;;;;;;;;;;;;;;;;6232195;22;20002;-89
2022/11/14 13:44:52;;;;;;;;;;;;;;;;;;6261317;22;19919;-89
2022/11/14 13:47:19;;;;;;;;;;;;;;;;;;6235941;22;19965;-89
2022/11/14 13:49:47;;;;;;;;;;;;;;;;;;6259331;22;19994;-89
2022/11/14 13:52:16;;;;;;;;;;;;;;;;;;6237279;22;19915;-89
2022/11/14 13:54:45;;;;;;;;;;;;;;;;;;6234332;22;19942;-88
2022/11/14 13:57:11;;;;;;;;;;;;;;;;;;6237902;22;19945;-88
2022/11/14 13:59:37;;;;;;;;;;;;;;;;;;6258019;22;19961;-89
2022/11/14 14:02:12;;;;;;;;;;;;;;;;;;6235240;22;20331;-88
2022/11/14 14:04:38;;;;;;;;;;;;;;;;;;6258110;22;19919;-88
2022/11/14 14:07:09;;;;;;;;;;;;;;;;;;6263272;22;19962;-89
2022/11/14 14:09:35;;;;;;;;;;;;;;;;;;6234531;22;19923;-89
2022/11/14 14:12:01;;;;;;;;;;;;;;;;;;6238537;22;19919;-89
2022/11/14 14:14:31;;;;;;;;;;;;;;;;;;6261869;22;19961;-89
2022/11/14 14:16:57;;;;;;;;;;;;;;;;;;6263793;22;19990;-88
2022/11/14 14:19:23;;;;;;;;;;;;;;;;;;6236234;22;19919;-89
2022/11/14 14:21:51;;;;;;;;;;;;;;;;;;6264071;22;20240;-89
2022/11/14 14:24:17;;;;;;;;;;;;;;;;;;6236766;22;19990;-89
2022/11/14 14:26:44;;;;;;;;;;;;;;;;;;6238651;22;19919;-89
2022/11/14 14:29:10;;;;;;;;;;;;;;;;;;6238051;22;19930;-89
2022/11/14 14:31:36;;;;;;;;;;;;;;;;;;6233562;22;20168;-89
2022/11/14 14:34:02;;;;;;;;;;;;;;;;;;6240610;22;19915;-89
2022/11/14 14:36:28;;;;;;;;;;;;;;;;;;6260778;22;19964;-88
2022/11/14 14:39:15;;;;;;;;;;;;;;;;;;6236270;22;19973;-89
2022/11/14 16:20:24;;;;;;;;;;;;;;;;;;6294320;22;20336;-92
2022/11/14 16:22:55;;;;;;;;;;;;;;;;;;6244991;22;20000;-92
2022/11/14 16:28:16;;;;;;;;;;;;;;;;;;6270840;22;19930;-93
2022/11/14 16:30:47;;;;;;;;;;;;;;;;;;6244795;22;19954;-92
2022/11/14 16:39:20;;;;;;;;;;;;;;;;;;6258976;22;19919;-93
2022/11/14 16:44:58;;;;;;;;;;;;;;;;;;6119723;23;20325;-93
2022/11/14 16:47:45;;;;;;;;;;;;;;;;;;6254129;22;19919;-92
2022/11/14 16:50:14;;;;;;;;;;;;;;;;;;6272655;22;19968;-93
2022/11/14 16:52:43;;;;;;;;;;;;;;;;;;6243454;22;19922;-92
2022/11/14 16:57:54;;;;;;;;;;;;;;;;;;6279254;22;19958;-87
2022/11/14 18:21:42;;;;;;;;;;;;;;;;;;6291948;22;19919;-90
2022/11/14 18:24:07;;;;;;;;;;;;;;;;;;6269484;22;19915;-89
2022/11/14 18:26:33;;;;;;;;;;;;;;;;;;6266517;22;19968;-90
2022/11/14 18:29:00;;;;;;;;;;;;;;;;;;6244352;22;20256;-90
2022/11/14 18:31:26;;;;;;;;;;;;;;;;;;6240437;22;19914;-90
2022/11/14 18:33:52;;;;;;;;;;;;;;;;;;6268937;22;20433;-89
2022/11/14 18:36:18;;;;;;;;;;;;;;;;;;6266164;22;19985;-90
2022/11/14 18:38:44;;;;;;;;;;;;;;;;;;6244708;22;19946;-90
2022/11/14 18:41:10;;;;;;;;;;;;;;;;;;6269315;22;19965;-90
2022/11/14 18:43:36;;;;;;;;;;;;;;;;;;6235327;22;20580;-90
2022/11/14 18:46:04;;;;;;;;;;;;;;;;;;6233897;22;20715;-90
2022/11/14 18:48:30;;;;;;;;;;;;;;;;;;6234813;22;19919;-90
2022/11/14 18:50:56;;;;;;;;;;;;;;;;;;6236452;22;19985;-90
2022/11/14 18:53:22;;;;;;;;;;;;;;;;;;6234891;22;19919;-90
2022/11/14 18:55:51;;;;;;;;;;;;;;;;;;6239358;22;20775;-90
2022/11/14 18:58:20;;;;;;;;;;;;;;;;;;6235696;22;19926;-90
2022/11/14 19:00:46;;;;;;;;;;;;;;;;;;6236283;22;19915;-90
2022/11/14 19:03:15;;;;;;;;;;;;;;;;;;6236211;22;19938;-90
2022/11/14 19:05:41;;;;;;;;;;;;;;;;;;6236346;22;19926;-90
2022/11/14 19:08:07;;;;;;;;;;;;;;;;;;6235705;22;19978;-90
2022/11/14 19:10:33;;;;;;;;;;;;;;;;;;6234043;22;19919;-90
2022/11/14 19:12:58;;;;;;;;;;;;;;;;;;6232118;22;20711;-89
2022/11/14 19:15:24;;;;;;;;;;;;;;;;;;6234788;22;19922;-90
2022/11/14 19:17:50;;;;;;;;;;;;;;;;;;6236432;22;19923;-91
2022/11/14 19:20:16;;;;;;;;;;;;;;;;;;6234892;22;19915;-90
2022/11/14 19:49:40;;;;;;;;;;;;;;;;;;6255514;22;20371;-92
2022/11/14 19:52:27;;;;;;;;;;;;;;;;;;6212140;22;19959;-92
2022/11/14 19:54:58;;;;;;;;;;;;;;;;;;6241031;22;19922;-92
2022/11/14 20:00:42;;;;;;;;;;;;;;;;;;;;;
2022/11/14 20:03:17;;;;;;;;;;;;;;;;;;6238282;22;19919;-92
2022/11/14 20:09:05;;;;;;;;;;;;;;;;;;6203443;23;19950;-92
2022/11/14 20:11:37;;;;;;;;;;;;;;;;;;6200918;23;19920;-91
2022/11/14 20:14:08;;;;;;;;;;;;;;;;;;6224002;23;19978;-93
2022/11/14 20:16:58;;;;;;;;;;;;;;;;;;6184613;23;20002;-92
2022/11/14 20:19:33;;;;;;;;;;;;;;;;;;6202554;23;19984;-92
2022/11/14 20:30:58;;;;;;;;;;;;;;;;;;6210991;23;20002;-92
2022/11/14 20:33:27;;;;;;;;;;;;;;;;;;6202177;23;19927;-92
2022/11/14 20:35:56;;;;;;;;;;;;;;;;;;6205683;23;20369;-91
2022/11/14 20:38:34;;;;;;;;;;;;;;;;;;6205850;23;19990;-92
2022/11/14 20:41:20;;;;;;;;;;;;;;;;;;;;;
2022/11/14 20:46:57;;;;;;;;;;;;;;;;;;;;;
2022/11/14 20:49:39;;;;;;;;;;;;;;;;;;;;;
2022/11/14 20:52:07;;;;;;;;;;;;;;;;;;6258787;22;19919;-93
2022/11/14 20:55:07;;;;;;;;;;;;;;;;;;;;;
2022/11/14 21:00:42;;;;;;;;;;;;;;;;;;;;;
2022/11/14 21:03:10;;;;;;;;;;;;;;;;;;6237955;22;19950;-92
2022/11/14 21:05:45;;;;;;;;;;;;;;;;;;6238417;22;19945;-93
2022/11/14 21:08:11;;;;;;;;;;;;;;;;;;6241068;22;19919;-93
2022/11/14 21:10:44;;;;;;;;;;;;;;;;;;6239359;22;20311;-93
2022/11/14 21:16:00;;;;;;;;;;;;;;;;;;6240442;22;19954;-93
2022/11/14 21:18:29;;;;;;;;;;;;;;;;;;6239823;22;19990;-93
2022/11/14 21:21:16;;;;;;;;;;;;;;;;;;;;;
2022/11/14 21:24:02;;;;;;;;;;;;;;;;;;6242642;22;19920;-92
2022/11/14 21:26:34;;;;;;;;;;;;;;;;;;6239604;22;20359;-92
2022/11/14 21:29:00;;;;;;;;;;;;;;;;;;6242295;22;19958;-93
2022/11/14 21:31:56;;;;;;;;;;;;;;;;;;6240278;22;19919;-92
2022/11/14 21:34:33;;;;;;;;;;;;;;;;;;6238230;22;19919;-93
2022/11/14 21:37:15;;;;;;;;;;;;;;;;;;;;;
2022/11/14 21:39:47;;;;;;;;;;;;;;;;;;6241511;22;19982;-93
2022/11/14 21:42:13;;;;;;;;;;;;;;;;;;6243219;22;19990;-93
2022/11/14 21:47:44;;;;;;;;;;;;;;;;;;6241093;22;19926;-92
2022/11/14 21:50:13;;;;;;;;;;;;;;;;;;6233007;23;19926;-92
2022/11/14 21:52:48;;;;;;;;;;;;;;;;;;6233580;23;19922;-93
2022/11/14 21:55:25;;;;;;;;;;;;;;;;;;6233895;23;19916;-93
2022/11/14 21:58:10;;;;;;;;;;;;;;;;;;;;;
2022/11/14 22:00:39;;;;;;;;;;;;;;;;;;6232690;23;19919;-91
2022/11/14 22:06:32;;;;;;;;;;;;;;;;;;6235330;23;19986;-94
2022/11/14 22:11:48;;;;;;;;;;;;;;;;;;6188069;23;19942;-94
2022/11/14 22:14:29;;;;;;;;;;;;;;;;;;6231764;23;20323;-93
2022/11/14 22:17:19;;;;;;;;;;;;;;;;;;6235892;23;19923;-93
2022/11/14 22:19:47;;;;;;;;;;;;;;;;;;6234974;23;19920;-93
2022/11/14 22:22:20;;;;;;;;;;;;;;;;;;6222045;23;19990;-92
2022/11/14 22:33:58;;;;;;;;;;;;;;;;;;;;;
2022/11/14 22:36:47;;;;;;;;;;;;;;;;;;6237839;22;19915;-92
2022/11/14 22:39:32;;;;;;;;;;;;;;;;;;6274128;22;20730;-92
2022/11/14 22:45:01;;;;;;;;;;;;;;;;;;6238030;22;19926;-93
2022/11/14 22:50:40;;;;;;;;;;;;;;;;;;6104850;23;19935;-93
2022/11/14 22:56:05;;;;;;;;;;;;;;;;;;6098014;23;20400;-93
2022/11/14 23:01:33;;;;;;;;;;;;;;;;;;;;;
2022/11/14 23:04:08;;;;;;;;;;;;;;;;;;6209909;23;19924;-93
2022/11/14 23:09:33;;;;;;;;;;;;;;;;;;;;;
2022/11/14 23:12:08;;;;;;;;;;;;;;;;;;6238879;23;19919;-92
2022/11/14 23:17:41;;;;;;;;;;;;;;;;;;;;;
2022/11/14 23:20:13;;;;;;;;;;;;;;;;;;6210159;23;20355;-92
2022/11/14 23:25:39;;;;;;;;;;;;;;;;;;6190524;23;19919;-93
2022/11/14 23:28:08;;;;;;;;;;;;;;;;;;6211811;23;19977;-93
2022/11/14 23:30:42;;;;;;;;;;;;;;;;;;6208118;23;19970;-93
2022/11/14 23:33:14;;;;;;;;;;;;;;;;;;6211564;23;19916;-93
2022/11/14 23:35:42;;;;;;;;;;;;;;;;;;6202002;23;19920;-93
2022/11/14 23:38:29;;;;;;;;;;;;;;;;;;6195679;23;19923;-93
2022/11/14 23:43:44;;;;;;;;;;;;;;;;;;6189976;23;19922;-93
2022/11/14 23:46:16;;;;;;;;;;;;;;;;;;6233301;23;20462;-92